Time;durP1;ratioP1;P1;durP2;ratioP2;P2;SDS_P1;SDS_P2;PMS_P1;PMS_P2;Temp;Humidity;BMP_temperature;BMP_pressure;BME280_temperature;BME280_humidity;BME280_pressure;Samples;Min_cycle;Max_cycle;Signal;HPM_P1;HPM_P2
2023/12/14 00:02:09;;;;;;;220.48;133.82;;;;;;;12.00;nan;99123.75;5112062;28;20773;-73
2023/12/14 00:04:39;;;;;;;213.52;129.63;;;;;;;12.03;nan;99121.56;5115726;28;20130;-73
2023/12/14 00:07:08;;;;;;;215.38;126.63;;;;;;;12.02;nan;99121.75;5112156;28;20057;-73
2023/12/14 00:09:38;;;;;;;210.25;125.25;;;;;;;12.03;nan;99134.84;5104747;28;20098;-74
2023/12/14 00:12:08;;;;;;;204.63;123.38;;;;;;;11.98;nan;99131.09;5103073;28;20432;-74
2023/12/14 00:14:37;;;;;;;205.30;122.82;;;;;;;12.07;nan;99130.78;5105341;28;20043;-74
2023/12/14 00:17:07;;;;;;;195.45;124.15;;;;;;;12.07;nan;99127.31;5091607;28;20048;-73
2023/12/14 00:19:36;;;;;;;197.95;122.38;;;;;;;12.07;nan;99125.47;5095952;28;20052;-73
2023/12/14 00:22:06;;;;;;;197.48;119.60;;;;;;;12.07;nan;99129.97;5106218;27;20774;-74
2023/12/14 00:24:36;;;;;;;210.85;119.63;;;;;;;12.03;nan;99128.69;5104497;28;20047;-72
2023/12/14 00:27:05;;;;;;;191.50;117.40;;;;;;;12.00;nan;99134.38;5104672;28;20055;-74
2023/12/14 00:29:35;;;;;;;195.30;120.68;;;;;;;11.86;nan;99127.31;5104624;28;20043;-72
2023/12/14 00:32:04;;;;;;;197.23;119.47;;;;;;;11.88;nan;99127.94;5103063;27;20159;-73
2023/12/14 00:34:36;;;;;;;195.38;117.93;;;;;;;11.83;nan;99122.38;5103939;28;20112;-71
2023/12/14 00:37:06;;;;;;;192.52;115.90;;;;;;;11.75;nan;99131.28;5096896;28;20055;-71
2023/12/14 00:39:35;;;;;;;189.82;116.63;;;;;;;11.81;nan;99124.41;5103467;28;20056;-71
2023/12/14 00:42:05;;;;;;;199.35;118.80;;;;;;;11.86;nan;99132.63;5104160;28;20047;-71
2023/12/14 00:44:35;;;;;;;189.98;119.95;;;;;;;11.98;nan;99133.75;5104505;28;20433;-72
2023/12/14 00:47:04;;;;;;;195.05;117.63;;;;;;;12.00;nan;99132.53;5103764;27;20348;-71
2023/12/14 00:49:34;;;;;;;204.05;121.18;;;;;;;12.04;nan;99119.69;5078095;28;20666;-71
2023/12/14 00:52:04;;;;;;;197.23;118.35;;;;;;;12.15;nan;99117.38;5103725;28;20040;-73
2023/12/14 00:54:34;;;;;;;193.00;116.20;;;;;;;12.12;nan;99117.75;5103951;28;20048;-72
2023/12/14 00:57:04;;;;;;;192.55;118.55;;;;;;;12.15;nan;99116.53;5100821;28;20134;-73
2023/12/14 00:59:34;;;;;;;199.35;121.82;;;;;;;12.18;nan;99117.97;5094284;28;20058;-73
2023/12/14 01:02:04;;;;;;;193.65;118.85;;;;;;;12.10;nan;99121.59;5099119;28;20134;-71
2023/12/14 01:04:34;;;;;;;195.25;119.07;;;;;;;12.07;nan;99124.66;5111515;27;20054;-65
2023/12/14 01:07:05;;;;;;;196.90;115.90;;;;;;;11.93;nan;99129.00;5086837;28;20052;-65
2023/12/14 01:09:35;;;;;;;200.73;119.60;;;;;;;11.92;nan;99130.03;5099186;27;20150;-65
2023/12/14 01:12:05;;;;;;;195.20;116.88;;;;;;;11.73;nan;99128.00;5107848;27;20051;-65
2023/12/14 01:14:35;;;;;;;190.57;114.43;;;;;;;11.86;nan;99130.78;5108330;28;20376;-64
2023/12/14 01:17:04;;;;;;;198.90;119.72;;;;;;;11.97;nan;99132.94;5107108;28;20591;-67
2023/12/14 01:19:34;;;;;;;195.80;119.68;;;;;;;12.05;nan;99131.97;5108223;28;20035;-65
2023/12/14 01:22:03;;;;;;;194.07;118.47;;;;;;;12.04;nan;99128.50;5106284;28;20502;-65
2023/12/14 01:24:33;;;;;;;204.73;119.50;;;;;;;11.99;nan;99130.09;5106552;28;20051;-65
2023/12/14 01:27:02;;;;;;;199.85;119.53;;;;;;;11.99;nan;99130.88;5107687;28;20117;-65
2023/12/14 01:29:32;;;;;;;198.40;118.90;;;;;;;11.99;nan;99130.09;5095747;28;20512;-64
2023/12/14 01:32:02;;;;;;;191.25;116.40;;;;;;;12.05;nan;99124.81;5105228;28;20051;-66
2023/12/14 01:34:31;;;;;;;192.60;118.63;;;;;;;11.96;nan;99133.94;5089447;28;20655;-65
2023/12/14 01:37:01;;;;;;;197.98;118.55;;;;;;;11.99;nan;99130.09;5107157;27;20055;-65
2023/12/14 01:39:30;;;;;;;196.30;119.25;;;;;;;11.88;nan;99127.94;5079677;28;20542;-65
2023/12/14 01:42:00;;;;;;;193.55;117.90;;;;;;;11.91;nan;99130.19;5093866;28;20039;-65
2023/12/14 01:44:29;;;;;;;195.80;118.65;;;;;;;11.92;nan;99139.81;5108180;27;20550;-66
2023/12/14 01:46:58;;;;;;;196.20;117.40;;;;;;;11.90;nan;99139.19;5107950;28;20036;-65
2023/12/14 01:49:28;;;;;;;198.43;119.30;;;;;;;11.88;nan;99144.69;5098027;28;20123;-64
2023/12/14 01:51:58;;;;;;;188.38;116.15;;;;;;;11.57;nan;99142.31;5105706;27;20048;-65
2023/12/14 01:54:27;;;;;;;183.73;114.25;;;;;;;11.50;nan;99148.56;5103381;28;20121;-65
2023/12/14 01:56:56;;;;;;;194.65;115.82;;;;;;;11.39;nan;99144.53;5107961;28;20101;-66
2023/12/14 01:59:26;;;;;;;199.98;115.68;;;;;;;11.34;nan;99146.94;5104086;28;20148;-65
2023/12/14 02:01:56;;;;;;;197.57;116.25;;;;;;;11.43;nan;99140.50;5100525;28;20127;-66
2023/12/14 02:04:27;;;;;;;192.18;115.57;;;;;;;11.40;nan;99140.06;5107335;27;20465;-65
2023/12/14 02:06:56;;;;;;;190.07;116.30;;;;;;;11.15;nan;99142.22;5106691;28;20050;-64
2023/12/14 02:09:25;;;;;;;193.35;116.63;;;;;;;11.25;nan;99140.91;5104333;27;20055;-66
2023/12/14 02:11:55;;;;;;;193.05;116.05;;;;;;;11.16;nan;99151.81;5107016;27;20108;-65
2023/12/14 02:14:25;;;;;;;202.15;119.90;;;;;;;10.97;nan;99147.91;5105090;27;20562;-64
2023/12/14 02:16:54;;;;;;;190.57;117.53;;;;;;;11.21;nan;99155.56;5101916;27;20116;-65
2023/12/14 02:19:24;;;;;;;197.15;119.88;;;;;;;11.40;nan;99154.16;5106111;27;20058;-67
2023/12/14 02:21:53;;;;;;;194.23;117.15;;;;;;;11.15;nan;99156.28;5114709;27;20055;-66
2023/12/14 02:24:22;;;;;;;188.65;116.40;;;;;;;11.16;nan;99165.06;5112621;27;20055;-65
2023/12/14 02:26:52;;;;;;;195.65;119.10;;;;;;;11.30;nan;99174.00;5092700;28;20160;-65
2023/12/14 02:29:30;;;;;;;193.95;118.30;;;;;;;11.36;nan;99171.44;5109785;27;20717;-65
2023/12/14 02:32:00;;;;;;;198.50;118.07;;;;;;;11.41;nan;99177.03;5112100;27;20128;-65
2023/12/14 02:34:30;;;;;;;198.50;119.75;;;;;;;11.48;nan;99177.09;5111350;27;20086;-64
2023/12/14 02:37:00;;;;;;;189.93;117.50;;;;;;;11.42;nan;99177.84;5109234;27;20051;-65
2023/12/14 02:39:29;;;;;;;191.65;116.30;;;;;;;11.32;nan;99178.13;5113465;27;20055;-65
2023/12/14 02:41:58;;;;;;;199.57;120.40;;;;;;;11.36;nan;99176.75;5115587;27;20047;-65
2023/12/14 02:44:28;;;;;;;196.27;119.57;;;;;;;11.66;nan;99185.44;5106266;27;20052;-65
2023/12/14 02:46:57;;;;;;;210.07;118.82;;;;;;;11.68;nan;99178.16;5105044;27;20048;-65
2023/12/14 02:49:27;;;;;;;194.52;117.57;;;;;;;11.87;nan;99184.69;5118308;27;20047;-65
2023/12/14 02:51:57;;;;;;;192.05;118.25;;;;;;;11.90;nan;99181.66;5114969;27;20549;-65
2023/12/14 02:54:26;;;;;;;198.95;120.07;;;;;;;11.69;nan;99190.38;5109241;27;20092;-65
2023/12/14 02:56:55;;;;;;;194.80;118.40;;;;;;;11.81;nan;99196.06;5111156;27;20148;-65
2023/12/14 02:59:25;;;;;;;189.75;118.40;;;;;;;12.01;nan;99197.06;5116920;27;20043;-65
2023/12/14 03:01:54;;;;;;;189.07;116.22;;;;;;;12.08;nan;99206.75;5111566;27;20077;-65
2023/12/14 03:04:24;;;;;;;185.40;116.82;;;;;;;11.96;nan;99207.44;5116552;27;20040;-65
2023/12/14 03:06:55;;;;;;;191.05;115.63;;;;;;;12.00;nan;99208.69;5097764;27;20047;-65
2023/12/14 03:09:25;;;;;;;183.27;113.53;;;;;;;12.12;nan;99209.84;5106148;27;20052;-65
2023/12/14 03:11:54;;;;;;;191.10;115.40;;;;;;;12.16;nan;99213.78;5107865;27;20390;-65
2023/12/14 03:14:24;;;;;;;191.18;114.13;;;;;;;12.31;nan;99221.66;5106786;28;20043;-65
2023/12/14 03:16:53;;;;;;;196.95;113.25;;;;;;;12.38;nan;99223.38;5106632;28;20474;-65
2023/12/14 03:19:23;;;;;;;186.23;115.63;;;;;;;12.46;nan;99225.06;5106643;28;20769;-65
2023/12/14 03:21:52;;;;;;;188.27;112.80;;;;;;;12.68;nan;99221.38;5106246;28;20139;-66
2023/12/14 03:24:22;;;;;;;184.90;117.40;;;;;;;12.83;nan;99229.25;5106116;28;20483;-66
2023/12/14 03:26:51;;;;;;;190.90;117.30;;;;;;;13.19;nan;99226.44;5101475;28;20051;-66
2023/12/14 03:29:21;;;;;;;183.55;117.25;;;;;;;13.66;nan;99231.78;5105722;27;20139;-66
2023/12/14 03:31:50;;;;;;;176.73;112.28;;;;;;;14.16;nan;99227.78;5105622;28;20043;-66
2023/12/14 03:34:20;;;;;;;175.93;109.72;;;;;;;14.62;nan;99241.19;5096023;28;20060;-66
2023/12/14 03:36:50;;;;;;;168.23;107.80;;;;;;;14.90;nan;99242.84;5105480;28;20101;-66
2023/12/14 03:39:19;;;;;;;162.80;104.82;;;;;;;15.13;nan;99253.91;5104099;28;20050;-67
2023/12/14 03:41:49;;;;;;;156.45;99.45;;;;;;;15.31;nan;99256.72;5105372;27;20051;-66
2023/12/14 03:44:19;;;;;;;141.07;95.07;;;;;;;15.69;nan;99260.31;5105826;27;20138;-67
2023/12/14 03:46:49;;;;;;;157.68;97.03;;;;;;;15.95;nan;99263.91;5105748;28;20083;-67
2023/12/14 03:49:18;;;;;;;160.43;96.32;;;;;;;16.21;nan;99271.78;5103022;28;20043;-67
2023/12/14 03:51:48;;;;;;;145.50;91.13;;;;;;;16.10;nan;99270.63;5105503;27;20052;-67
2023/12/14 03:54:17;;;;;;;148.52;90.60;;;;;;;16.56;nan;99272.97;5082090;27;20101;-67
2023/12/14 03:56:47;;;;;;;139.55;90.53;;;;;;;16.80;nan;99278.59;5105282;27;20379;-67
2023/12/14 03:59:16;;;;;;;135.20;88.85;;;;;;;17.26;nan;99286.22;5105275;28;20051;-67
2023/12/14 04:01:45;;;;;;;135.23;87.90;;;;;;;17.29;nan;99283.09;5104680;28;20093;-67
2023/12/14 04:04:15;;;;;;;138.23;90.00;;;;;;;17.41;nan;99294.69;5105952;27;20054;-67
2023/12/14 04:06:45;;;;;;;143.68;89.90;;;;;;;17.77;nan;99299.28;5099765;27;20121;-67
2023/12/14 04:09:14;;;;;;;134.35;86.85;;;;;;;18.07;nan;99304.69;5117197;27;20047;-67
2023/12/14 04:11:44;;;;;;;129.45;85.20;;;;;;;18.56;nan;99311.66;5113993;27;20053;-67
2023/12/14 04:14:13;;;;;;;138.45;88.28;;;;;;;18.45;nan;99320.47;5115197;27;20043;-67
2023/12/14 04:16:43;;;;;;;127.32;86.05;;;;;;;18.59;nan;99309.34;5101052;27;20055;-67
2023/12/14 04:19:13;;;;;;;124.90;83.63;;;;;;;18.90;nan;99312.81;5081712;28;20063;-67
2023/12/14 04:21:42;;;;;;;119.25;77.57;;;;;;;18.99;nan;99322.97;5112206;27;20070;-67
2023/12/14 04:24:12;;;;;;;101.25;66.57;;;;;;;18.97;nan;99329.63;5109351;27;20179;-67
2023/12/14 04:26:42;;;;;;;101.65;68.80;;;;;;;19.28;nan;99329.31;5108728;27;20534;-65
2023/12/14 04:29:11;;;;;;;99.55;66.80;;;;;;;19.70;nan;99335.38;5111065;27;20630;-65
2023/12/14 04:31:42;;;;;;;94.60;62.53;;;;;;;19.37;nan;99341.34;5107083;27;20047;-67
2023/12/14 04:34:15;;;;;;;93.07;64.07;;;;;;;19.64;nan;99342.53;5101172;27;20121;-68
2023/12/14 04:36:46;;;;;;;90.05;63.97;;;;;;;19.73;nan;99333.06;5097687;27;20775;-68
2023/12/14 04:39:16;;;;;;;96.50;63.60;;;;;;;19.48;nan;99342.41;5103531;27;20055;-68
2023/12/14 04:41:46;;;;;;;96.10;64.85;;;;;;;19.55;nan;99348.50;5101633;27;20059;-67
2023/12/14 04:44:16;;;;;;;92.47;63.30;;;;;;;19.51;nan;99356.22;5099236;28;20053;-68
2023/12/14 04:46:45;;;;;;;84.65;58.22;;;;;;;19.13;nan;99358.47;5079328;28;20043;-67
2023/12/14 04:49:15;;;;;;;78.65;53.38;;;;;;;18.66;nan;99357.56;5099990;28;20134;-68
2023/12/14 04:51:45;;;;;;;74.60;47.10;;;;;;;18.57;nan;99357.06;5113292;27;20061;-68
2023/12/14 04:54:14;;;;;;;72.13;49.38;;;;;;;18.22;nan;99359.56;5091036;28;20430;-68
2023/12/14 04:56:46;;;;;;;69.97;51.13;;;;;;;18.27;nan;99359.72;5100803;27;20043;-67
2023/12/14 04:59:16;;;;;;;77.22;51.55;;;;;;;18.06;nan;99357.47;5101220;27;20460;-67
2023/12/14 05:01:46;;;;;;;75.13;52.60;;;;;;;18.02;nan;99358.16;5103549;27;20051;-67
2023/12/14 05:04:15;;;;;;;76.35;52.72;;;;;;;17.98;nan;99355.09;5103696;27;20128;-67
2023/12/14 05:06:45;;;;;;;78.18;51.63;;;;;;;18.04;nan;99351.53;5101084;27;20051;-67
2023/12/14 05:09:14;;;;;;;84.00;51.08;;;;;;;18.05;nan;99352.34;5120713;27;20115;-67
2023/12/14 05:11:44;;;;;;;77.47;50.38;;;;;;;17.95;nan;99351.03;5079904;28;20066;-67
2023/12/14 05:54:30;;;;;;;73.88;47.58;;;;;;;;;;5018147;28;20956;-65
2023/12/14 05:57:00;;;;;;;73.40;45.83;;;;;;;18.53;nan;99312.13;5025574;28;20053;-66
2023/12/14 05:59:29;;;;;;;76.38;46.38;;;;;;;18.74;nan;99314.28;5035066;28;20132;-66
2023/12/14 06:02:00;;;;;;;79.72;49.50;;;;;;;18.75;nan;99314.06;5021913;28;20152;-64
2023/12/14 06:04:29;;;;;;;72.68;45.72;;;;;;;18.53;nan;99309.44;5017522;28;20123;-64
2023/12/14 06:06:59;;;;;;;70.90;47.63;;;;;;;18.35;nan;99307.63;5032019;28;20115;-63
2023/12/14 06:09:35;;;;;;;69.28;45.15;;;;;;;18.45;nan;99301.69;5029423;28;20053;-66
2023/12/14 06:12:04;;;;;;;76.97;47.72;;;;;;;18.39;nan;99303.44;5034426;28;20057;-65
2023/12/14 06:14:35;;;;;;;76.43;46.67;;;;;;;18.50;nan;99305.31;5029213;28;20057;-68
2023/12/14 06:17:04;;;;;;;95.57;50.33;;;;;;;18.84;nan;99303.81;5024523;28;20160;-65
2023/12/14 06:19:34;;;;;;;80.75;49.83;;;;;;;18.64;nan;99298.75;5028949;28;20147;-65
2023/12/14 06:22:04;;;;;;;73.40;49.25;;;;;;;18.69;nan;99295.38;5016757;28;20073;-65
2023/12/14 06:24:33;;;;;;;73.28;51.17;;;;;;;18.62;nan;99279.38;5024780;28;20054;-65
2023/12/14 06:27:03;;;;;;;82.80;53.80;;;;;;;18.63;nan;99288.25;5025802;28;20073;-65
2023/12/14 06:29:33;;;;;;;79.47;53.80;;;;;;;18.87;nan;99278.38;5027223;28;20041;-65
2023/12/14 06:32:02;;;;;;;81.53;54.97;;;;;;;18.43;nan;99275.09;5026622;28;20053;-66
2023/12/14 06:34:32;;;;;;;89.95;57.90;;;;;;;18.82;nan;99285.25;5033941;28;20040;-65
2023/12/14 06:37:02;;;;;;;91.38;58.17;;;;;;;19.28;nan;99273.72;5040902;28;20084;-66
2023/12/14 06:39:32;;;;;;;93.15;59.55;;;;;;;19.40;nan;99276.38;5018220;28;20065;-64
2023/12/14 06:42:01;;;;;;;87.40;57.40;;;;;;;19.26;nan;99269.63;5033338;28;20057;-65
2023/12/14 06:44:31;;;;;;;92.85;57.40;;;;;;;19.30;nan;99260.84;5040771;28;20099;-66
2023/12/14 06:47:02;;;;;;;96.05;58.70;;;;;;;19.22;nan;99252.34;5038129;28;20057;-66
2023/12/14 06:49:31;;;;;;;94.35;58.10;;;;;;;19.20;nan;99247.22;5025943;28;20048;-66
2023/12/14 06:52:00;;;;;;;90.65;60.92;;;;;;;19.52;nan;99252.22;5040642;28;20056;-66
2023/12/14 06:54:30;;;;;;;92.20;59.50;;;;;;;19.44;nan;99250.72;5032364;28;20067;-64
2023/12/14 06:57:00;;;;;;;86.95;61.00;;;;;;;19.75;nan;99236.03;5023504;28;20054;-64
2023/12/14 06:59:29;;;;;;;92.15;60.85;;;;;;;19.82;nan;99241.28;5019816;28;20049;-64
2023/12/14 07:01:59;;;;;;;95.65;63.10;;;;;;;19.99;nan;99242.16;5013817;28;20068;-64
2023/12/14 07:04:28;;;;;;;91.43;61.42;;;;;;;19.83;nan;99241.03;5022780;28;20056;-65
2023/12/14 07:06:58;;;;;;;133.80;81.22;;;;;;;19.87;nan;99236.00;5018431;28;20061;-65
2023/12/14 07:09:28;;;;;;;150.95;100.28;;;;;;;19.68;nan;99236.19;5025774;28;20376;-65
2023/12/14 07:11:57;;;;;;;153.00;101.57;;;;;;;19.53;nan;99233.19;5026630;28;20052;-65
2023/12/14 07:14:32;;;;;;;153.50;104.20;;;;;;;19.60;nan;99236.56;5024536;28;20065;-66
2023/12/14 07:17:01;;;;;;;161.85;106.25;;;;;;;19.62;nan;99229.06;5025898;28;20049;-66
2023/12/14 07:19:31;;;;;;;168.40;106.22;;;;;;;19.22;nan;99215.56;5014882;28;20107;-66
2023/12/14 07:22:01;;;;;;;164.68;108.47;;;;;;;19.30;nan;99211.69;5020218;28;20140;-64
2023/12/14 07:24:30;;;;;;;164.98;105.47;;;;;;;19.35;nan;99210.97;5020389;28;20670;-65
2023/12/14 07:27:08;;;;;;;155.68;102.55;;;;;;;19.58;nan;99214.47;5011999;28;20052;-65
2023/12/14 07:29:56;;;;;;;155.02;100.95;;;;;;;19.55;nan;99225.72;5017796;28;20057;-65
2023/12/14 07:32:44;;;;;;;144.55;94.47;;;;;;;19.60;nan;99211.56;5012250;28;20211;-65
2023/12/14 07:35:35;;;;;;;152.82;96.70;;;;;;;19.57;nan;99199.41;5011084;28;20543;-65
2023/12/14 07:38:25;;;;;;;132.13;94.38;;;;;;;19.52;nan;99195.78;5008107;28;20444;-66
2023/12/14 07:41:15;;;;;;;142.25;91.57;;;;;;;19.64;nan;99196.59;5008510;28;20056;-65
2023/12/14 07:44:05;;;;;;;132.70;84.78;;;;;;;19.41;nan;99188.56;5014393;28;20345;-65
2023/12/14 07:46:55;;;;;;;126.28;84.07;;;;;;;19.01;nan;99188.50;5011741;28;20053;-65
2023/12/14 07:49:45;;;;;;;135.88;78.97;;;;;;;19.10;nan;99185.22;4989131;28;20420;-66
2023/12/14 07:52:35;;;;;;;103.43;65.82;;;;;;;19.25;nan;99185.53;5001756;28;20062;-65
2023/12/14 07:55:26;;;;;;;107.50;71.00;;;;;;;19.22;nan;99177.97;5005707;28;20057;-64
2023/12/14 07:58:15;;;;;;;113.65;73.38;;;;;;;19.18;nan;99178.69;4994239;28;20101;-65
2023/12/14 08:01:06;;;;;;;108.28;70.35;;;;;;;19.10;nan;99176.34;4995244;28;20038;-65
2023/12/14 08:03:56;;;;;;;106.47;67.32;;;;;;;18.79;nan;99186.41;4990394;28;20049;-65
2023/12/14 08:06:46;;;;;;;92.35;63.05;;;;;;;18.76;nan;99176.13;5001744;28;20084;-66
2023/12/14 08:09:36;;;;;;;97.93;60.17;;;;;;;18.73;nan;99175.78;4993629;28;20052;-66
2023/12/14 08:12:26;;;;;;;91.00;57.72;;;;;;;18.71;nan;99169.84;5003428;28;20089;-65
2023/12/14 08:15:16;;;;;;;93.30;60.80;;;;;;;18.70;nan;99154.78;5000497;28;20041;-65
2023/12/14 08:18:07;;;;;;;81.43;57.13;;;;;;;18.96;nan;99161.53;4985768;28;20803;-65
2023/12/14 08:20:57;;;;;;;81.30;55.28;;;;;;;19.10;nan;99157.56;4985155;28;20137;-65
2023/12/14 08:23:47;;;;;;;78.65;52.05;;;;;;;19.20;nan;99155.91;4998082;28;20038;-65
2023/12/14 08:26:37;;;;;;;78.78;51.92;;;;;;;19.18;nan;99147.28;4982706;28;20047;-65
2023/12/14 08:29:27;;;;;;;78.57;51.85;;;;;;;19.31;nan;99148.88;4990772;28;20448;-66
2023/12/14 08:32:17;;;;;;;82.97;51.88;;;;;;;19.20;nan;99144.34;5005469;28;20053;-65
2023/12/14 08:35:07;;;;;;;74.55;49.55;;;;;;;19.41;nan;99141.03;5016579;28;20537;-66
2023/12/14 08:37:58;;;;;;;78.63;51.70;;;;;;;19.31;nan;99132.75;5015433;28;20053;-67
2023/12/14 08:40:47;;;;;;;75.82;50.97;;;;;;;19.52;nan;99129.44;5012840;28;20064;-66
2023/12/14 08:43:37;;;;;;;83.38;53.33;;;;;;;19.42;nan;99136.47;5007151;28;20559;-67
2023/12/14 08:46:27;;;;;;;73.80;48.65;;;;;;;19.47;nan;99123.19;5009912;28;20045;-65
2023/12/14 08:49:17;;;;;;;80.95;51.67;;;;;;;19.50;nan;99131.56;5002337;28;20045;-65
2023/12/14 08:52:07;;;;;;;83.32;50.90;;;;;;;19.54;nan;99131.91;5016827;28;20473;-65
2023/12/14 08:54:57;;;;;;;71.75;49.20;;;;;;;19.45;nan;99128.78;5014457;28;21245;-66
2023/12/14 08:57:46;;;;;;;71.88;49.17;;;;;;;19.38;nan;99119.19;5018483;28;20044;-66
2023/12/14 09:00:36;;;;;;;73.22;48.22;;;;;;;19.53;nan;99117.63;5013428;28;20490;-66
2023/12/14 09:03:27;;;;;;;68.28;47.45;;;;;;;19.51;nan;99113.56;5013150;28;20033;-66
2023/12/14 09:06:18;;;;;;;74.93;50.47;;;;;;;19.61;nan;99117.25;5012882;28;20042;-66
2023/12/14 09:09:08;;;;;;;78.45;50.53;;;;;;;19.29;nan;99124.13;5021887;28;20046;-65
2023/12/14 09:11:58;;;;;;;69.75;48.08;;;;;;;19.16;nan;99110.97;5013418;28;20129;-66
2023/12/14 09:14:48;;;;;;;71.88;51.33;;;;;;;19.33;nan;99105.66;5009565;28;20072;-65
2023/12/14 09:31:19;;;;;;;74.75;51.88;;;;;;;19.29;nan;99113.41;4812907;27;7286862;-64
2023/12/14 09:33:48;;;;;;;73.45;53.10;;;;;;;19.39;nan;99110.06;5049346;28;20044;-64
2023/12/14 09:36:18;;;;;;;80.18;51.13;;;;;;;19.49;nan;99111.13;5032290;28;20041;-64
2023/12/14 09:38:48;;;;;;;72.57;52.13;;;;;;;19.37;nan;99098.75;5047238;28;20122;-64
2023/12/14 10:23:24;;;;;;;73.90;56.40;;;;;;;18.45;nan;99101.34;5094971;27;20858;-64
2023/12/14 10:25:54;;;;;;;80.63;55.67;;;;;;;18.47;nan;99104.59;5079992;28;20048;-63
2023/12/14 10:28:24;;;;;;;79.03;58.08;;;;;;;18.54;nan;99110.72;5081107;28;20067;-65
2023/12/14 10:30:53;;;;;;;84.82;57.72;;;;;;;18.46;nan;99096.78;5062328;28;20260;-65
2023/12/14 10:33:23;;;;;;;81.85;58.85;;;;;;;18.38;nan;99090.72;5068681;28;20692;-64
2023/12/14 10:35:52;;;;;;;83.65;58.38;;;;;;;18.53;nan;99092.16;5088094;28;20992;-65
2023/12/14 10:38:24;;;;;;;85.30;57.55;;;;;;;18.55;nan;99082.81;5087915;28;20049;-64
2023/12/14 10:40:57;;;;;;;84.60;60.17;;;;;;;18.34;nan;99081.53;5080472;28;20045;-64
2023/12/14 10:43:28;;;;;;;79.75;58.88;;;;;;;18.46;nan;99083.38;5053081;28;20047;-63
2023/12/14 10:46:15;;;;;;;88.20;60.47;;;;;;;18.37;nan;99081.03;5066083;28;20036;-63
2023/12/14 10:48:47;;;;;;;87.40;61.13;;;;;;;18.45;nan;99079.09;5069961;28;20040;-63
2023/12/14 10:51:22;;;;;;;91.72;61.20;;;;;;;18.39;nan;99078.97;5077109;28;20471;-63
2023/12/14 10:53:53;;;;;;;86.70;61.88;;;;;;;18.44;nan;99080.94;5061698;28;20214;-64
2023/12/14 10:56:22;;;;;;;88.90;61.80;;;;;;;18.52;nan;99088.63;5067501;28;20040;-63
2023/12/14 10:58:57;;;;;;;85.18;60.20;;;;;;;18.59;nan;99089.34;5065747;28;20049;-64
2023/12/14 11:01:29;;;;;;;90.43;61.42;;;;;;;18.37;nan;99082.91;5067919;28;20052;-63
2023/12/14 11:03:59;;;;;;;87.78;60.72;;;;;;;18.26;nan;99094.47;5070049;28;20399;-64
2023/12/14 11:06:30;;;;;;;97.78;64.75;;;;;;;18.28;nan;99090.50;5062827;28;20739;-63
2023/12/14 11:09:06;;;;;;;97.22;65.15;;;;;;;18.20;nan;99084.66;5082928;28;20053;-64
2023/12/14 11:11:53;;;;;;;101.80;64.95;;;;;;;18.18;nan;99078.72;5063019;28;20049;-64
2023/12/14 11:14:24;;;;;;;96.10;66.72;;;;;;;18.11;nan;99076.13;5059665;28;20045;-64
2023/12/14 11:16:56;;;;;;;98.13;65.20;;;;;;;17.98;nan;99073.69;5063234;28;20770;-64
2023/12/14 11:19:28;;;;;;;93.03;65.80;;;;;;;18.05;nan;99069.03;5066572;28;20051;-64
2023/12/14 11:22:23;;;;;;;97.45;67.30;;;;;;;18.10;nan;99065.66;5062063;28;20536;-64
2023/12/14 11:24:55;;;;;;;96.55;68.97;;;;;;;18.00;nan;99060.06;5061893;28;20045;-66
2023/12/14 11:27:30;;;;;;;96.65;65.85;;;;;;;17.90;nan;99065.97;5040176;28;20493;-64
2023/12/14 11:30:02;;;;;;;101.25;69.90;;;;;;;17.92;nan;99071.94;5031522;28;20049;-63
2023/12/14 11:32:32;;;;;;;94.90;68.45;;;;;;;17.68;nan;99073.75;5075273;28;20045;-64
2023/12/14 11:35:01;;;;;;;98.90;66.97;;;;;;;17.70;nan;99063.59;5069077;28;20094;-64
2023/12/14 11:37:34;;;;;;;99.57;67.07;;;;;;;17.64;nan;99071.75;5069431;28;20084;-65
2023/12/14 11:40:07;;;;;;;99.28;69.65;;;;;;;17.59;nan;99085.00;5059940;28;20044;-70
2023/12/14 11:42:37;;;;;;;98.63;70.78;;;;;;;17.60;nan;99084.78;5085068;28;20052;-69
2023/12/14 11:45:07;;;;;;;106.18;70.07;;;;;;;17.43;nan;99084.59;5065390;28;20972;-67
2023/12/14 11:47:37;;;;;;;98.63;69.63;;;;;;;17.49;nan;99077.47;5056634;28;20041;-67
2023/12/14 11:50:09;;;;;;;103.03;71.78;;;;;;;17.34;nan;99085.13;5051482;28;20037;-69
2023/12/14 11:52:39;;;;;;;102.78;70.15;;;;;;;17.19;nan;99079.34;5056951;28;20075;-67
2023/12/14 11:55:11;;;;;;;105.40;71.55;;;;;;;17.26;nan;99077.41;5046485;28;20056;-64
2023/12/14 11:57:47;;;;;;;102.63;69.95;;;;;;;17.29;nan;99079.63;5047823;28;20044;-64
2023/12/14 12:00:17;;;;;;;105.03;71.28;;;;;;;17.24;nan;99076.81;5063955;28;20072;-65
2023/12/14 12:02:47;;;;;;;101.07;70.30;;;;;;;17.16;nan;99071.78;5063429;28;20041;-65
2023/12/14 12:05:18;;;;;;;104.50;72.15;;;;;;;16.98;nan;99078.78;5047527;28;20072;-64
2023/12/14 12:07:48;;;;;;;106.90;72.90;;;;;;;17.01;nan;99083.69;5045817;28;20048;-63
2023/12/14 12:10:18;;;;;;;107.25;72.47;;;;;;;16.97;nan;99082.50;5083691;28;20158;-66
2023/12/14 12:12:47;;;;;;;110.07;71.88;;;;;;;17.00;nan;99084.72;5072836;28;20051;-64
2023/12/14 12:15:18;;;;;;;115.00;72.00;;;;;;;17.00;nan;99079.34;5063939;28;20073;-66
2023/12/14 12:17:48;;;;;;;110.55;72.72;;;;;;;16.89;nan;99069.44;5065692;28;20045;-65
2023/12/14 12:20:18;;;;;;;110.07;72.05;;;;;;;16.75;nan;99075.97;5060380;28;20076;-67
2023/12/14 12:22:48;;;;;;;116.95;75.93;;;;;;;16.82;nan;99087.38;5062827;28;20399;-63
2023/12/14 12:25:17;;;;;;;109.80;74.22;;;;;;;16.71;nan;99079.31;5061675;28;20048;-63
2023/12/14 12:27:47;;;;;;;124.47;75.75;;;;;;;16.67;nan;99070.09;5065401;28;20076;-64
2023/12/14 12:30:16;;;;;;;113.05;73.97;;;;;;;16.66;nan;99081.81;5063244;28;20045;-65
2023/12/14 12:32:50;;;;;;;117.78;74.40;;;;;;;16.31;nan;99093.03;5059786;28;20055;-65
2023/12/14 12:35:20;;;;;;;109.78;71.97;;;;;;;16.16;nan;99080.00;5038375;28;20199;-65
2023/12/14 12:37:53;;;;;;;118.20;76.50;;;;;;;16.18;nan;99085.97;5063270;28;20049;-65
2023/12/14 12:40:27;;;;;;;130.07;76.85;;;;;;;16.22;nan;99089.00;5069203;28;20148;-66
2023/12/14 12:42:56;;;;;;;117.75;76.90;;;;;;;16.02;nan;99089.16;5060815;28;20058;-67
2023/12/14 12:45:27;;;;;;;121.95;77.15;;;;;;;15.79;nan;99094.28;5064203;28;20048;-66
2023/12/14 12:47:57;;;;;;;126.80;77.75;;;;;;;15.85;nan;99093.41;5056104;28;20128;-68
2023/12/14 12:50:27;;;;;;;122.50;77.57;;;;;;;15.78;nan;99098.00;4714074;28;9999799;-67
2023/12/14 12:52:56;;;;;;;121.07;77.57;;;;;;;15.77;nan;99100.88;5072096;28;20044;-68
2023/12/14 12:55:26;;;;;;;116.55;77.15;;;;;;;15.77;nan;99101.69;5063898;28;20137;-70
2023/12/14 12:57:55;;;;;;;129.25;78.15;;;;;;;15.77;nan;99092.84;5055640;28;20040;-70
2023/12/14 13:00:25;;;;;;;131.75;83.38;;;;;;;15.73;nan;99098.63;5066731;28;20073;-70
2023/12/14 13:02:56;;;;;;;123.28;78.50;;;;;;;15.80;nan;99095.91;5068417;28;20549;-72
2023/12/14 13:05:25;;;;;;;127.70;82.03;;;;;;;15.76;nan;99096.56;5059208;28;20053;-71
2023/12/14 13:07:57;;;;;;;115.40;79.70;;;;;;;15.74;nan;99104.78;5080104;27;20076;-70
2023/12/14 13:10:26;;;;;;;128.95;81.70;;;;;;;15.55;nan;99097.72;5067164;28;20052;-71
2023/12/14 13:12:59;;;;;;;131.77;81.82;;;;;;;15.56;nan;99110.88;5066455;28;20816;-70
2023/12/14 13:15:30;;;;;;;127.78;82.13;;;;;;;15.60;nan;99105.91;5062048;28;20486;-71
2023/12/14 13:18:00;;;;;;;132.05;84.57;;;;;;;15.56;nan;99105.53;5071457;28;20144;-68
2023/12/14 13:20:29;;;;;;;133.32;82.28;;;;;;;15.36;nan;99111.94;5078850;28;20040;-69
2023/12/14 13:22:59;;;;;;;132.93;82.63;;;;;;;15.38;nan;99105.38;5057949;28;20045;-69
2023/12/14 13:25:29;;;;;;;132.88;83.20;;;;;;;15.40;nan;99105.19;5060669;28;20048;-67
2023/12/14 13:27:59;;;;;;;126.63;83.28;;;;;;;15.40;nan;99108.66;5051579;28;20087;-70
2023/12/14 13:30:29;;;;;;;140.07;86.55;;;;;;;15.36;nan;99114.63;5059760;28;20055;-70